createdAt,value
2022-12-23T00:01:12.138Z,97174.69
2022-12-23T00:03:41.268Z,97172.02
2022-12-23T00:06:12.581Z,97167.06
2022-12-23T00:08:43.207Z,97175.11
2022-12-23T00:11:20.552Z,97175.57
2022-12-23T00:14:11.245Z,97175.21
2022-12-23T00:16:44.742Z,97174.13
2022-12-23T00:19:14.568Z,97175.02
2022-12-23T00:21:43.566Z,97169.59
2022-12-23T00:24:13.892Z,97168.69
2022-12-23T00:26:42.560Z,97170.70
2022-12-23T00:29:13.201Z,97170.06
2022-12-23T00:31:42.532Z,97177.19
2022-12-23T00:34:13.427Z,97179.76
2022-12-23T00:36:42.848Z,97178.68
2022-12-23T00:39:33.336Z,97180.16
2022-12-23T00:42:21.390Z,97175.96
2022-12-23T00:44:50.917Z,97172.13
2022-12-23T00:47:40.352Z,97172.41
2022-12-23T00:50:10.078Z,97171.55
2022-12-23T00:52:39.174Z,97170.64
2022-12-23T00:55:08.842Z,97168.42
2022-12-23T00:57:37.545Z,97164.40
2022-12-23T01:00:07.575Z,97168.83
2022-12-23T01:02:55.248Z,97168.15
2022-12-23T01:05:37.097Z,97163.75
2022-12-23T01:08:09.417Z,97160.71
2022-12-23T01:10:40.497Z,97160.69
2022-12-23T01:13:09.398Z,97157.58
2022-12-23T01:15:39.675Z,97159.58
2022-12-23T01:18:08.607Z,97157.47
2022-12-23T01:20:42.361Z,97153.64
2022-12-23T01:23:11.929Z,97163.55
2022-12-23T01:25:40.927Z,97164.48
2022-12-23T01:28:11.044Z,97161.88
2022-12-23T01:30:40.343Z,97155.70
2022-12-23T01:33:10.314Z,97146.27
2022-12-23T01:35:40.265Z,97142.59
2022-12-23T01:38:09.360Z,97140.45
2022-12-23T01:40:40.649Z,97133.61
2022-12-23T01:43:20.322Z,97139.61
2022-12-23T01:45:49.816Z,97140.16
2022-12-23T01:48:24.712Z,97142.29
2022-12-23T01:51:05.340Z,97144.44
2022-12-23T01:53:40.184Z,97147.70
2022-12-23T01:56:28.451Z,97143.41
2022-12-23T01:59:10.833Z,97142.26
2022-12-23T02:01:59.227Z,97141.67
2022-12-23T02:04:29.066Z,97142.01
2022-12-23T02:07:17.221Z,97142.83
2022-12-23T02:09:47.702Z,97135.71
2022-12-23T02:12:44.612Z,97132.79
2022-12-23T02:15:38.083Z,97133.92
2022-12-23T02:18:38.195Z,97135.95
2022-12-23T02:21:44.986Z,97128.24
2022-12-23T02:25:22.993Z,97126.55
2022-12-23T02:27:53.033Z,97118.21
2022-12-23T02:30:28.087Z,97115.79
2022-12-23T02:33:10.800Z,97113.30
2022-12-23T02:35:52.202Z,97112.73
2022-12-23T02:38:31.403Z,97113.51
2022-12-23T02:41:10.607Z,97114.69
2022-12-23T02:43:51.414Z,97109.69
2022-12-23T02:46:30.309Z,97106.92
2022-12-23T02:49:10.125Z,97107.23
2022-12-23T02:51:45.701Z,97114.52
2022-12-23T02:54:19.490Z,97114.43
2022-12-23T02:56:52.647Z,97117.52
2022-12-23T02:59:26.790Z,97123.84
2022-12-23T03:01:58.608Z,97122.99
2022-12-23T03:04:29.370Z,97125.76
2022-12-23T03:07:06.963Z,97124.36
2022-12-23T03:09:54.911Z,97120.57
2022-12-23T03:12:27.937Z,97120.05
2022-12-23T03:15:21.988Z,97118.19
2022-12-23T03:18:21.492Z,97115.28
2022-12-23T03:20:51.511Z,97117.98
2022-12-23T03:23:28.797Z,97115.43
2022-12-23T03:26:11.801Z,97118.77
2022-12-23T03:28:52.814Z,97120.91
2022-12-23T03:31:29.905Z,97110.87
2022-12-23T03:34:04.911Z,97110.79
2022-12-23T03:36:44.362Z,97101.98
2022-12-23T03:39:19.897Z,97097.29
2022-12-23T03:41:55.029Z,97103.48
2022-12-23T03:44:33.643Z,97110.39
2022-12-23T03:47:11.436Z,97109.45
2022-12-23T03:49:54.919Z,97109.70
2022-12-23T03:52:32.148Z,97106.88
2022-12-23T03:55:06.781Z,97102.77
2022-12-23T03:57:48.004Z,97095.26
2022-12-23T04:00:18.095Z,97090.23
2022-12-23T04:02:53.808Z,97094.14
2022-12-23T04:05:37.673Z,97094.51
2022-12-23T04:08:35.136Z,97087.90
2022-12-23T04:11:05.754Z,97090.70
2022-12-23T04:13:36.307Z,97089.20
2022-12-23T04:16:08.996Z,97088.27
2022-12-23T04:18:39.040Z,97081.21
2022-12-23T04:21:08.669Z,97080.25
2022-12-23T04:23:41.174Z,97084.19
2022-12-23T04:26:11.794Z,97087.27
2022-12-23T04:28:41.328Z,97088.13
2022-12-23T04:31:11.827Z,97092.91
2022-12-23T04:33:41.479Z,97092.26
2022-12-23T04:36:12.262Z,97093.47
2022-12-23T04:38:42.088Z,97092.46
2022-12-23T04:41:11.625Z,97098.46
2022-12-23T04:43:41.175Z,97098.80
2022-12-23T04:46:11.265Z,97096.59
2022-12-23T04:48:40.244Z,97094.39
2022-12-23T04:51:09.625Z,97093.69
2022-12-23T04:53:40.660Z,97089.58
2022-12-23T04:56:10.274Z,97088.16
2022-12-23T04:58:39.273Z,97085.54
2022-12-23T05:01:12.135Z,97079.09
2022-12-23T05:03:41.911Z,97079.99
2022-12-23T05:06:11.458Z,97087.14
2022-12-23T05:08:40.573Z,97084.94
2022-12-23T05:11:10.168Z,97090.48
2022-12-23T05:13:39.969Z,97089.88
2022-12-23T05:16:10.190Z,97083.64
2022-12-23T05:18:39.601Z,97082.05
2022-12-23T05:21:08.953Z,97081.11
2022-12-23T05:23:38.360Z,97085.09
2022-12-23T05:26:07.875Z,97093.06
2022-12-23T05:28:37.621Z,97092.45
2022-12-23T05:31:08.506Z,97090.48
2022-12-23T05:33:37.821Z,97091.21
2022-12-23T05:36:07.254Z,97095.32
2022-12-23T05:38:36.880Z,97097.14
2022-12-23T05:41:06.915Z,97098.02
2022-12-23T05:43:35.557Z,97101.80
2022-12-23T05:46:05.525Z,97109.41
2022-12-23T05:48:34.572Z,97120.28
2022-12-23T05:51:03.759Z,97124.34
2022-12-23T05:53:32.775Z,97126.12
2022-12-23T05:56:05.703Z,97125.91
2022-12-23T05:58:35.060Z,97118.71
2022-12-23T06:01:05.004Z,97115.39
2022-12-23T06:03:34.273Z,97114.94
2022-12-23T06:06:04.246Z,97116.95
2022-12-23T06:08:33.578Z,97113.96
2022-12-23T06:11:05.857Z,97109.55
2022-12-23T06:13:34.537Z,97109.25
2022-12-23T06:16:03.464Z,97110.14
2022-12-23T06:18:32.727Z,97113.83
2022-12-23T06:21:01.314Z,97112.20
2022-12-23T06:23:30.193Z,97107.36
2022-12-23T06:26:02.464Z,97104.05
2022-12-23T06:28:31.582Z,97100.67
2022-12-23T06:31:00.961Z,97105.19
2022-12-23T06:33:29.652Z,97110.26
2022-12-23T06:35:58.742Z,97113.80
2022-12-23T06:38:27.456Z,97107.13
2022-12-23T06:40:56.111Z,97106.61
2022-12-23T06:43:25.004Z,97111.89
2022-12-23T06:45:53.660Z,97108.07
2022-12-23T06:48:22.580Z,97105.42
2022-12-23T06:50:53.124Z,97109.56
2022-12-23T06:53:23.036Z,97111.27
2022-12-23T06:56:03.385Z,97115.23
2022-12-23T06:58:32.069Z,97113.11
2022-12-23T07:01:00.880Z,97110.85
2022-12-23T07:03:29.682Z,97116.23
2022-12-23T07:05:58.439Z,97128.27
2022-12-23T07:08:27.834Z,97125.41
2022-12-23T07:11:03.937Z,97127.71
2022-12-23T07:13:33.599Z,97130.19
2022-12-23T07:16:07.729Z,97132.72
2022-12-23T07:18:36.913Z,97132.16
2022-12-23T07:21:09.118Z,97134.56
2022-12-23T07:23:44.441Z,97134.70
2022-12-23T07:26:13.303Z,97133.59
2022-12-23T07:28:47.216Z,97140.71
2022-12-23T07:31:17.055Z,97146.04
2022-12-23T07:33:46.021Z,97149.67
2022-12-23T07:36:14.710Z,97148.83
2022-12-23T07:38:43.493Z,97142.40
2022-12-23T07:41:12.194Z,97137.63
2022-12-23T07:43:41.075Z,97141.73
2022-12-23T07:46:10.548Z,97147.43
2022-12-23T07:48:42.020Z,97147.36
2022-12-23T07:51:11.028Z,97152.29
2022-12-23T07:53:39.808Z,97150.26
2022-12-23T07:56:08.898Z,97155.39
2022-12-23T07:58:37.695Z,97154.98
2022-12-23T08:01:08.325Z,97156.90
2022-12-23T08:03:37.601Z,97158.04
2022-12-23T08:06:08.615Z,97158.86
2022-12-23T08:08:38.060Z,97160.54
2022-12-23T08:11:09.128Z,97165.57
2022-12-23T08:13:39.678Z,97172.31
2022-12-23T08:16:09.569Z,97170.52
2022-12-23T08:18:39.655Z,97175.86
2022-12-23T08:21:17.724Z,97177.63
2022-12-23T08:23:47.908Z,97177.32
2022-12-23T08:26:21.498Z,97180.50
2022-12-23T08:28:54.681Z,97176.29
2022-12-23T08:31:26.003Z,97171.82
2022-12-23T08:33:57.069Z,97170.17
2022-12-23T08:36:29.013Z,97170.04
2022-12-23T08:38:59.947Z,97171.59
2022-12-23T08:41:31.831Z,97170.78
2022-12-23T08:44:00.625Z,97170.08
2022-12-23T08:46:29.753Z,97166.39
2022-12-23T08:48:59.021Z,97169.92
2022-12-23T08:51:29.145Z,97163.38
2022-12-23T08:54:01.578Z,97157.86
2022-12-23T08:56:33.760Z,97156.82
2022-12-23T08:59:04.247Z,97151.23
2022-12-23T09:01:35.199Z,97149.53
2022-12-23T09:04:06.095Z,97148.27
2022-12-23T09:06:43.937Z,97145.60
2022-12-23T09:09:14.918Z,97142.56
2022-12-23T09:11:44.114Z,97134.07
2022-12-23T09:14:13.003Z,97128.15
2022-12-23T09:16:41.794Z,97129.66
2022-12-23T09:19:10.992Z,97134.91
2022-12-23T09:21:40.081Z,97135.95
2022-12-23T09:24:08.784Z,97129.16
2022-12-23T09:26:37.558Z,97131.93
2022-12-23T09:29:06.240Z,97139.55
2022-12-23T09:31:37.750Z,97140.15
2022-12-23T09:34:07.221Z,97138.60
2022-12-23T09:36:35.795Z,97140.50
2022-12-23T09:39:04.567Z,97145.94
2022-12-23T09:41:49.020Z,97151.33
2022-12-23T09:44:23.651Z,97150.51
2022-12-23T09:46:57.539Z,97147.96
2022-12-23T09:49:27.575Z,97151.02
2022-12-23T09:52:04.347Z,97144.67
2022-12-23T09:54:46.259Z,97144.82
2022-12-23T09:57:26.709Z,97148.00
2022-12-23T10:00:07.379Z,97147.71
2022-12-23T10:02:42.771Z,97151.66
2022-12-23T10:05:30.447Z,97147.83
2022-12-23T10:08:13.065Z,97145.65
2022-12-23T10:10:47.691Z,97143.29
2022-12-23T10:13:29.890Z,97142.30
2022-12-23T10:16:04.421Z,97142.92
2022-12-23T10:18:42.211Z,97143.77
2022-12-23T10:21:14.951Z,97141.30
2022-12-23T10:23:49.507Z,97143.34
2022-12-23T10:26:32.742Z,97142.13
2022-12-23T10:29:19.832Z,97142.29
2022-12-23T10:32:27.108Z,97137.67
2022-12-23T10:35:38.121Z,97139.51
2022-12-23T10:38:28.417Z,97137.53
2022-12-23T10:41:31.098Z,97134.27
2022-12-23T10:44:19.138Z,97133.09
2022-12-23T10:47:03.431Z,97138.21
2022-12-23T10:50:06.482Z,97140.17
2022-12-23T10:52:40.382Z,97132.95
2022-12-23T10:55:32.954Z,97132.27
2022-12-23T10:58:13.698Z,97128.30
2022-12-23T11:00:47.042Z,97129.30
2022-12-23T11:03:34.932Z,97128.63
2022-12-23T11:06:08.021Z,97122.80
2022-12-23T11:08:38.741Z,97114.38
2022-12-23T11:11:07.652Z,97114.83
2022-12-23T11:13:42.165Z,97111.45
2022-12-23T11:16:28.648Z,97111.69
2022-12-23T11:19:00.644Z,97109.84
2022-12-23T11:21:30.988Z,97107.73
2022-12-23T11:24:17.355Z,97105.72
2022-12-23T11:26:50.440Z,97108.16
2022-12-23T11:29:28.390Z,97106.91
2022-12-23T11:31:57.507Z,97103.91
2022-12-23T11:34:31.040Z,97102.95
2022-12-23T11:37:05.456Z,97099.27
2022-12-23T11:39:37.854Z,97103.84
2022-12-23T11:42:12.395Z,97103.21
2022-12-23T11:44:50.953Z,97104.56
2022-12-23T11:47:22.339Z,97103.75
2022-12-23T11:49:57.273Z,97099.20
2022-12-23T11:52:29.317Z,97098.84
2022-12-23T11:55:06.044Z,97100.08
2022-12-23T11:57:49.023Z,97103.88
2022-12-23T12:00:35.012Z,97101.64
2022-12-23T12:03:05.263Z,97101.42
2022-12-23T12:05:41.592Z,97104.42
2022-12-23T12:08:15.703Z,97103.80
2022-12-23T12:10:44.801Z,97104.89
2022-12-23T12:13:40.520Z,97105.84
2022-12-23T12:16:17.568Z,97104.02
2022-12-23T12:18:53.735Z,97098.53
2022-12-23T12:21:29.747Z,97099.58
2022-12-23T12:24:18.189Z,97095.31
2022-12-23T12:26:52.775Z,97089.63
2022-12-23T12:29:37.868Z,97090.04
2022-12-23T12:32:17.090Z,97094.20
2022-12-23T12:34:57.554Z,97097.23
2022-12-23T12:37:35.250Z,97097.12
2022-12-23T12:40:13.274Z,97096.90
2022-12-23T12:42:44.493Z,97101.04
2022-12-23T12:45:45.380Z,97103.58
2022-12-23T12:48:32.664Z,97101.45
2022-12-23T12:51:26.537Z,97094.30
2022-12-23T12:54:20.112Z,97093.30
2022-12-23T12:56:55.046Z,97093.44
2022-12-23T12:59:37.656Z,97098.30
2022-12-23T13:02:44.179Z,97106.14
2022-12-23T13:05:38.409Z,97107.05
2022-12-23T13:08:13.136Z,97103.73
2022-12-23T13:10:44.997Z,97102.75
2022-12-23T13:13:33.034Z,97100.59
2022-12-23T13:16:17.268Z,97103.90
2022-12-23T13:18:55.393Z,97099.80
2022-12-23T13:21:33.087Z,97095.14
2022-12-23T13:24:10.784Z,97096.48
2022-12-23T13:26:55.491Z,97098.52
2022-12-23T13:29:56.278Z,97092.58
2022-12-23T13:33:07.180Z,97081.13
2022-12-23T13:35:41.893Z,97084.39
2022-12-23T13:38:29.307Z,97085.66
2022-12-23T13:41:22.484Z,97087.30
2022-12-23T13:44:05.719Z,97092.55
2022-12-23T13:46:53.238Z,97090.70
2022-12-23T13:49:40.475Z,97092.11
2022-12-23T13:52:11.897Z,97091.55
2022-12-23T13:54:57.083Z,97093.77
2022-12-23T13:57:34.460Z,97098.14
2022-12-23T14:00:18.195Z,97101.04
2022-12-23T14:03:06.202Z,97103.44
2022-12-23T14:05:41.235Z,97099.13
2022-12-23T14:08:19.442Z,97097.65
2022-12-23T14:11:16.644Z,97094.80
2022-12-23T14:13:52.376Z,97088.02
2022-12-23T14:16:30.649Z,97086.17
2022-12-23T14:19:24.874Z,97088.93
2022-12-23T14:22:12.407Z,97101.15
2022-12-23T14:25:24.223Z,97113.12
2022-12-23T14:28:13.156Z,97110.31
2022-12-23T14:30:47.081Z,97112.86
2022-12-23T14:33:31.218Z,97111.23
2022-12-23T14:36:23.336Z,97100.98
2022-12-23T14:39:13.948Z,97098.23
2022-12-23T14:41:50.956Z,97104.48
2022-12-23T14:44:22.317Z,97109.27
2022-12-23T14:46:50.950Z,97106.48
2022-12-23T14:49:49.341Z,97110.75
2022-12-23T14:52:42.490Z,97121.44
2022-12-23T14:55:31.645Z,97123.58
2022-12-23T14:58:20.627Z,97125.78
2022-12-23T15:01:11.644Z,97131.56
2022-12-23T15:03:45.998Z,97129.69
2022-12-23T15:06:28.875Z,97131.20
2022-12-23T15:08:57.987Z,97134.75
2022-12-23T15:11:30.965Z,97133.73
2022-12-23T15:14:16.449Z,97138.37
2022-12-23T15:16:46.766Z,97138.21
2022-12-23T15:19:22.354Z,97139.33
2022-12-23T15:21:59.625Z,97131.73
2022-12-23T15:24:32.029Z,97126.59
2022-12-23T15:27:25.989Z,97127.57
2022-12-23T15:29:53.689Z,97129.36
2022-12-23T15:32:26.284Z,97122.67
2022-12-23T15:35:06.266Z,97125.42
2022-12-23T15:37:35.531Z,97130.20
2022-12-23T15:40:12.810Z,97127.61
2022-12-23T15:42:47.551Z,97127.87
2022-12-23T15:45:41.726Z,97127.89
2022-12-23T15:48:24.551Z,97127.58
2022-12-23T15:51:04.195Z,97121.04
2022-12-23T15:53:37.687Z,97122.41
2022-12-23T15:56:10.365Z,97125.39
2022-12-23T15:58:42.453Z,97126.12
2022-12-23T16:01:16.171Z,97121.02
2022-12-23T16:03:53.204Z,97118.08
2022-12-23T16:06:36.357Z,97120.52
2022-12-23T16:09:07.729Z,97114.45
2022-12-23T16:11:57.067Z,97104.53
2022-12-23T16:14:31.380Z,97097.88
2022-12-23T16:17:25.160Z,97089.56
2022-12-23T16:19:56.241Z,97091.73
2022-12-23T16:22:35.942Z,97098.10
2022-12-23T16:25:25.926Z,97093.42
2022-12-23T16:27:59.214Z,97091.11
2022-12-23T16:30:32.302Z,97096.04
2022-12-23T16:33:03.677Z,97101.30
2022-12-23T16:35:42.083Z,97111.74
2022-12-23T16:38:18.543Z,97120.52
2022-12-23T16:40:49.974Z,97119.17
2022-12-23T16:43:19.690Z,97111.13
2022-12-23T16:45:57.405Z,97094.70
2022-12-23T16:48:41.539Z,97098.52
2022-12-23T16:51:15.136Z,97094.70
2022-12-23T16:53:43.622Z,97092.08
2022-12-23T16:56:13.970Z,97083.63
2022-12-23T16:58:43.343Z,97078.31
2022-12-23T17:01:18.732Z,97082.73
2022-12-23T17:03:47.478Z,97083.64
2022-12-23T17:06:18.048Z,97090.95
2022-12-23T17:08:47.507Z,97091.48
2022-12-23T17:11:24.137Z,97093.52
2022-12-23T17:13:56.667Z,97093.66
2022-12-23T17:16:30.305Z,97092.39
2022-12-23T17:18:59.353Z,97087.83
2022-12-23T17:21:34.409Z,97084.13
2022-12-23T17:24:21.810Z,97081.00
2022-12-23T17:26:51.520Z,97075.60
2022-12-23T17:29:20.616Z,97070.73
2022-12-23T17:31:51.415Z,97065.29
2022-12-23T17:34:22.785Z,97066.02
2022-12-23T17:36:51.810Z,97062.65
2022-12-23T17:39:22.585Z,97063.05
2022-12-23T17:41:51.616Z,97061.20
2022-12-23T17:44:20.711Z,97061.74
2022-12-23T17:46:49.198Z,97066.16
2022-12-23T17:49:17.887Z,97064.71
2022-12-23T17:51:46.872Z,97065.95
2022-12-23T17:54:25.696Z,97063.67
2022-12-23T17:56:54.278Z,97060.60
2022-12-23T17:59:23.015Z,97061.28
2022-12-23T18:01:51.993Z,97054.05
2022-12-23T18:04:21.578Z,97051.13
2022-12-23T18:06:50.349Z,97046.89
2022-12-23T18:09:21.085Z,97044.36
2022-12-23T18:11:49.878Z,97042.73
2022-12-23T18:14:28.291Z,97039.00
2022-12-23T18:16:57.118Z,97038.86
2022-12-23T18:19:26.040Z,97035.48
2022-12-23T18:21:54.553Z,97033.73
2022-12-23T18:24:23.128Z,97036.23
2022-12-23T18:26:51.823Z,97031.52
2022-12-23T18:29:20.505Z,97028.38
2022-12-23T18:31:52.066Z,97020.39
2022-12-23T18:34:21.671Z,97020.20
2022-12-23T18:36:52.073Z,97023.55
2022-12-23T18:39:21.329Z,97027.23
2022-12-23T18:41:49.971Z,97029.70
2022-12-23T18:44:21.323Z,97031.30
2022-12-23T18:46:50.943Z,97030.96
2022-12-23T18:49:19.818Z,97036.42
2022-12-23T18:51:49.117Z,97045.08
2022-12-23T18:54:18.021Z,97049.30
2022-12-23T18:56:47.823Z,97050.49
2022-12-23T18:59:24.036Z,97050.14
2022-12-23T19:01:58.777Z,97056.63
2022-12-23T19:04:27.858Z,97064.95
2022-12-23T19:06:57.612Z,97069.43
2022-12-23T19:09:28.193Z,97070.68
2022-12-23T19:11:57.661Z,97065.17
2022-12-23T19:14:26.436Z,97057.65
2022-12-23T19:16:55.222Z,97057.91
2022-12-23T19:19:24.226Z,97058.86
2022-12-23T19:21:53.004Z,97058.23
2022-12-23T19:24:21.618Z,97056.59
2022-12-23T19:26:50.273Z,97054.42
2022-12-23T19:29:18.973Z,97055.40
2022-12-23T19:31:47.880Z,97059.89
2022-12-23T19:34:16.767Z,97064.77
2022-12-23T19:36:45.483Z,97065.40
2022-12-23T19:39:17.505Z,97060.42
2022-12-23T19:41:46.287Z,97062.11
2022-12-23T19:44:15.490Z,97064.44
2022-12-23T19:46:44.347Z,97062.09
2022-12-23T19:49:19.596Z,97057.86
2022-12-23T19:51:49.888Z,97060.48
2022-12-23T19:54:19.818Z,97062.58
2022-12-23T19:56:51.521Z,97056.98
2022-12-23T19:59:21.106Z,97055.66
2022-12-23T20:01:49.988Z,97046.64
2022-12-23T20:04:18.678Z,97044.78
2022-12-23T20:06:47.159Z,97040.34
2022-12-23T20:09:15.953Z,97036.42
2022-12-23T20:11:48.976Z,97034.67
2022-12-23T20:14:19.667Z,97031.58
2022-12-23T20:16:48.876Z,97023.83
2022-12-23T20:19:17.999Z,97019.82
2022-12-23T20:21:47.160Z,97018.07
2022-12-23T20:24:16.381Z,97012.67
2022-12-23T20:26:45.189Z,97007.80
2022-12-23T20:29:13.934Z,97005.20
2022-12-23T20:31:43.714Z,97004.92
2022-12-23T20:34:16.325Z,96999.85
2022-12-23T20:36:45.525Z,97004.86
2022-12-23T20:39:14.427Z,97009.88
2022-12-23T20:41:43.099Z,97009.05
2022-12-23T20:47:00.325Z,97018.05
2022-12-23T20:49:29.019Z,97018.73
2022-12-23T20:51:57.744Z,97025.95
2022-12-23T20:54:32.061Z,97024.85
2022-12-23T20:57:02.967Z,97023.55
2022-12-23T20:59:31.555Z,97022.49
2022-12-23T21:02:01.305Z,97024.63
2022-12-23T21:04:29.839Z,97025.75
2022-12-23T21:06:58.640Z,97031.91
2022-12-23T21:09:27.314Z,97035.59
2022-12-23T21:11:55.999Z,97039.23
2022-12-23T21:14:24.679Z,97043.02
2022-12-23T21:16:53.463Z,97037.47
2022-12-23T21:19:24.924Z,97031.64
2022-12-23T21:21:54.217Z,97025.49
2022-12-23T21:24:23.423Z,97028.05
2022-12-23T21:26:56.304Z,97022.91
2022-12-23T21:29:26.051Z,97021.27
2022-12-23T21:31:55.605Z,97023.41
2022-12-23T21:34:24.504Z,97014.55
2022-12-23T21:36:53.578Z,97010.64
2022-12-23T21:39:22.503Z,97008.83
2022-12-23T21:41:53.031Z,97012.16
2022-12-23T21:44:21.701Z,97012.96
2022-12-23T21:46:51.692Z,97007.29
2022-12-23T21:49:21.355Z,97007.98
2022-12-23T21:51:50.101Z,97009.45
2022-12-23T21:54:19.427Z,97012.95
2022-12-23T21:56:49.225Z,97016.16
2022-12-23T21:59:18.031Z,97016.52
2022-12-23T22:01:46.916Z,97019.48
2022-12-23T22:04:15.432Z,97020.20
2022-12-23T22:06:44.987Z,97028.10
2022-12-23T22:09:16.862Z,97029.88
2022-12-23T22:11:47.382Z,97035.39
2022-12-23T22:14:19.461Z,97030.01
2022-12-23T22:16:48.115Z,97024.96
2022-12-23T22:19:17.264Z,97023.83
2022-12-23T22:21:45.820Z,97021.48
2022-12-23T22:24:14.505Z,97017.26
2022-12-23T22:26:43.188Z,97017.16
2022-12-23T22:29:12.298Z,97009.63
2022-12-23T22:31:47.209Z,97004.23
2022-12-23T22:34:19.697Z,97002.11
2022-12-23T22:36:49.315Z,97008.29
2022-12-23T22:39:21.645Z,97009.64
2022-12-23T22:41:52.380Z,97012.84
2022-12-23T22:44:21.765Z,97011.74
2022-12-23T22:46:50.742Z,97009.98
2022-12-23T22:49:19.594Z,97010.09
2022-12-23T22:51:48.388Z,97013.28
2022-12-23T22:54:17.326Z,97011.04
2022-12-23T22:56:46.785Z,97012.39
2022-12-23T22:59:21.674Z,97013.73
2022-12-23T23:01:52.145Z,97009.20
2022-12-23T23:04:21.363Z,97008.34
2022-12-23T23:06:50.316Z,97005.39
2022-12-23T23:09:21.599Z,97009.61
2022-12-23T23:11:51.315Z,97007.81
2022-12-23T23:14:20.638Z,97004.83
2022-12-23T23:16:49.516Z,97004.80
2022-12-23T23:19:21.015Z,97002.33
2022-12-23T23:21:50.341Z,96997.26
2022-12-23T23:24:19.109Z,96993.09
2022-12-23T23:26:48.416Z,96987.85
2022-12-23T23:29:17.904Z,96986.13
2022-12-23T23:31:46.851Z,96987.02
2022-12-23T23:34:15.692Z,96982.36
2022-12-23T23:36:44.750Z,96980.97
2022-12-23T23:39:14.832Z,96977.00
2022-12-23T23:41:43.911Z,96970.04
2022-12-23T23:44:13.690Z,96963.95
2022-12-23T23:46:43.211Z,96962.05
2022-12-23T23:49:12.310Z,96962.10
2022-12-23T23:51:44.366Z,96963.50
2022-12-23T23:54:13.482Z,96972.08
2022-12-23T23:56:42.993Z,96966.77
2022-12-23T23:59:12.318Z,96962.33
